Time;durP1;ratioP1;P1;durP2;ratioP2;P2;SDS_P1;SDS_P2;PMS_P1;PMS_P2;Temp;Humidity;BMP_temperature;BMP_pressure;BME280_temperature;BME280_humidity;BME280_pressure;Samples;Min_cycle;Max_cycle;Signal;HPM_P1;HPM_P2
2020/12/31 00:01:24;;;;;;;5.65;4.03;;;1.20;99.90;;;;;;5051079;28;20051;-68
2020/12/31 00:03:51;;;;;;;6.03;3.70;;;1.00;99.90;;;;;;5050934;28;20053;-68
2020/12/31 00:06:17;;;;;;;5.78;4.25;;;1.00;99.90;;;;;;5050761;28;20606;-68
2020/12/31 00:08:42;;;;;;;6.50;4.63;;;0.90;99.90;;;;;;5051805;28;20092;-68
2020/12/31 00:11:08;;;;;;;6.47;4.75;;;0.80;99.90;;;;;;5050822;28;20113;-68
2020/12/31 00:13:34;;;;;;;5.15;4.05;;;0.80;99.90;;;;;;5051821;28;20060;-68
2020/12/31 00:16:00;;;;;;;5.43;4.35;;;0.60;99.90;;;;;;5051970;28;20028;-68
2020/12/31 00:18:26;;;;;;;4.53;4.13;;;0.60;99.90;;;;;;5051499;28;20033;-68
2020/12/31 00:20:52;;;;;;;7.63;4.78;;;0.50;99.90;;;;;;5049619;28;20048;-68
2020/12/31 00:23:17;;;;;;;5.38;4.35;;;0.50;99.90;;;;;;5050345;28;20058;-68
2020/12/31 00:25:53;;;;;;;4.75;4.00;;;0.40;99.90;;;;;;5050564;28;20479;-68
2020/12/31 00:28:23;;;;;;;6.88;4.53;;;0.40;99.90;;;;;;5050775;28;20100;-68
2020/12/31 00:30:49;;;;;;;6.38;4.70;;;0.30;99.90;;;;;;5050856;28;20158;-68
2020/12/31 00:33:17;;;;;;;5.72;4.22;;;0.30;99.90;;;;;;5030397;28;20057;-68
2020/12/31 00:35:44;;;;;;;5.38;4.28;;;0.30;99.90;;;;;;5032544;28;20060;-68
2020/12/31 00:38:10;;;;;;;11.15;5.18;;;0.30;99.90;;;;;;5034691;28;20033;-68
2020/12/31 00:40:36;;;;;;;5.15;3.75;;;0.20;99.90;;;;;;5034651;28;20091;-68
2020/12/31 00:43:02;;;;;;;4.47;4.07;;;0.20;99.90;;;;;;5034085;28;20061;-68
2020/12/31 00:45:28;;;;;;;7.97;4.47;;;0.20;99.90;;;;;;5034844;28;20099;-68
2020/12/31 00:47:54;;;;;;;7.82;4.47;;;0.20;99.90;;;;;;5034758;28;20076;-68
2020/12/31 00:50:22;;;;;;;5.47;4.57;;;0.10;99.90;;;;;;5034816;28;20033;-68
2020/12/31 00:52:49;;;;;;;4.70;4.25;;;0.10;99.90;;;;;;5034723;28;20391;-68
2020/12/31 00:55:15;;;;;;;7.00;4.35;;;0.10;99.90;;;;;;5053234;28;20028;-68
2020/12/31 00:57:40;;;;;;;5.85;5.07;;;0.10;99.90;;;;;;5054292;28;20028;-68
2020/12/31 01:00:07;;;;;;;7.07;4.90;;;0.10;99.90;;;;;;5054520;28;20064;-68
2020/12/31 01:02:33;;;;;;;7.13;5.20;;;0.20;99.90;;;;;;5054491;28;20479;-68
2020/12/31 01:04:58;;;;;;;5.90;4.93;;;0.20;99.90;;;;;;5053658;28;20025;-68
2020/12/31 01:07:24;;;;;;;6.05;4.53;;;0.30;99.90;;;;;;5054100;28;20032;-68
2020/12/31 01:09:49;;;;;;;6.90;5.22;;;0.40;99.90;;;;;;5054348;28;20032;-68
2020/12/31 01:12:15;;;;;;;6.93;4.38;;;0.50;99.90;;;;;;5054034;28;20063;-68
2020/12/31 01:14:41;;;;;;;6.70;4.82;;;0.60;99.90;;;;;;5053531;28;20025;-68
2020/12/31 01:17:06;;;;;;;7.05;4.60;;;0.70;99.90;;;;;;5054190;28;20037;-68
2020/12/31 01:19:32;;;;;;;5.07;4.15;;;0.80;99.90;;;;;;5054086;28;20025;-68
2020/12/31 01:21:58;;;;;;;4.93;4.28;;;0.90;99.90;;;;;;5053941;28;20472;-68
2020/12/31 01:24:23;;;;;;;5.20;4.10;;;1.00;99.90;;;;;;5053363;28;20451;-68
2020/12/31 01:26:49;;;;;;;5.32;4.38;;;1.00;99.90;;;;;;5053225;28;20037;-68
2020/12/31 01:29:15;;;;;;;5.78;4.45;;;1.00;99.90;;;;;;5053888;28;20471;-68
2020/12/31 01:31:40;;;;;;;5.18;4.03;;;1.00;99.90;;;;;;5053809;28;20025;-68
2020/12/31 01:34:06;;;;;;;5.20;3.95;;;1.20;99.90;;;;;;5053130;28;20044;-68
2020/12/31 01:36:34;;;;;;;6.57;4.18;;;1.20;99.90;;;;;;5053469;28;20039;-68
2020/12/31 01:39:01;;;;;;;4.55;4.00;;;1.30;99.90;;;;;;5053868;28;20112;-68
2020/12/31 01:41:26;;;;;;;4.45;3.72;;;1.30;99.90;;;;;;5053631;28;20510;-68
2020/12/31 01:44:06;;;;;;;5.78;3.95;;;1.40;99.90;;;;;;5052981;28;20102;-68
2020/12/31 01:46:33;;;;;;;3.95;3.60;;;1.50;99.90;;;;;;5052826;28;20104;-68
2020/12/31 01:49:00;;;;;;;7.20;3.85;;;1.40;99.90;;;;;;5053157;28;20047;-68
2020/12/31 01:51:26;;;;;;;5.85;4.00;;;1.40;99.90;;;;;;5053469;28;20029;-68
2020/12/31 01:53:56;;;;;;;4.75;3.45;;;1.40;99.90;;;;;;5052759;28;20032;-68
2020/12/31 01:56:30;;;;;;;7.70;3.33;;;1.50;99.90;;;;;;5053175;28;20028;-69
2020/12/31 01:58:57;;;;;;;4.00;3.25;;;1.50;99.90;;;;;;5053516;28;20025;-69
2020/12/31 02:01:24;;;;;;;4.07;3.70;;;1.50;99.90;;;;;;5053187;28;20107;-69
2020/12/31 02:03:51;;;;;;;3.65;3.20;;;1.60;99.90;;;;;;5052549;28;20762;-68
2020/12/31 02:06:17;;;;;;;4.05;3.40;;;1.60;99.90;;;;;;5051123;28;20025;-68
2020/12/31 02:08:46;;;;;;;4.35;3.05;;;1.50;99.90;;;;;;5053365;28;20025;-68
2020/12/31 02:11:16;;;;;;;4.22;3.30;;;1.60;99.90;;;;;;5053033;28;20025;-68
2020/12/31 02:13:46;;;;;;;3.72;3.10;;;1.60;99.90;;;;;;5052450;28;20116;-68
2020/12/31 02:16:19;;;;;;;7.80;3.17;;;1.60;99.90;;;;;;5068242;28;20061;-68
2020/12/31 02:18:56;;;;;;;3.90;3.50;;;1.60;99.90;;;;;;5068366;28;20546;-69
2020/12/31 02:21:31;;;;;;;4.03;3.47;;;1.60;99.90;;;;;;5053120;28;20025;-69
2020/12/31 02:23:59;;;;;;;4.18;3.45;;;1.50;99.90;;;;;;5052270;28;20025;-69
2020/12/31 02:26:26;;;;;;;3.63;3.10;;;1.60;99.90;;;;;;5052833;28;20021;-68
2020/12/31 02:28:53;;;;;;;5.35;3.78;;;1.60;99.90;;;;;;5052767;28;20017;-68
2020/12/31 02:31:20;;;;;;;3.95;3.38;;;1.50;99.90;;;;;;5052649;28;20025;-68
2020/12/31 02:33:53;;;;;;;5.15;3.95;;;1.40;99.90;;;;;;5051868;28;20479;-68
2020/12/31 02:36:21;;;;;;;4.38;3.70;;;1.20;99.90;;;;;;5052398;28;20025;-68
2020/12/31 02:38:47;;;;;;;4.57;3.30;;;1.10;99.90;;;;;;5052944;28;20044;-68
2020/12/31 02:41:13;;;;;;;7.05;3.90;;;0.90;99.90;;;;;;5052313;28;20052;-68
2020/12/31 02:43:40;;;;;;;4.65;4.13;;;0.80;99.90;;;;;;5051643;28;20017;-68
2020/12/31 02:46:08;;;;;;;5.88;4.32;;;0.70;99.90;;;;;;5052425;28;20025;-68
2020/12/31 02:48:33;;;;;;;5.55;4.05;;;0.50;99.90;;;;;;5052149;28;20092;-68
2020/12/31 02:51:00;;;;;;;5.72;4.15;;;0.40;99.90;;;;;;5052056;28;20039;-68
2020/12/31 02:53:25;;;;;;;5.03;3.83;;;0.20;99.90;;;;;;5051361;28;20491;-68
2020/12/31 02:55:51;;;;;;;10.35;4.60;;;0.10;99.90;;;;;;5050870;28;20067;-69
2020/12/31 02:58:17;;;;;;;6.03;5.18;;;0.00;99.90;;;;;;5052537;28;20040;-69
2020/12/31 03:00:43;;;;;;;5.90;4.28;;;0.00;99.90;;;;;;5052811;28;20060;-69
2020/12/31 03:03:09;;;;;;;5.80;3.78;;;-0.10;99.90;;;;;;5052279;28;20029;-68
2020/12/31 03:05:34;;;;;;;7.60;4.57;;;-0.20;99.90;;;;;;5051679;28;20078;-68
2020/12/31 03:08:00;;;;;;;4.65;4.10;;;-0.20;99.90;;;;;;5052076;28;20032;-68
2020/12/31 03:10:26;;;;;;;6.35;4.78;;;-0.30;99.90;;;;;;5052311;28;20025;-68
2020/12/31 03:12:51;;;;;;;8.25;5.03;;;-0.30;99.90;;;;;;5050127;28;20430;-68
2020/12/31 03:15:20;;;;;;;7.65;5.07;;;-0.30;99.90;;;;;;5052826;28;20131;-68
2020/12/31 03:17:46;;;;;;;7.22;5.35;;;-0.40;99.90;;;;;;5052461;28;20029;-69
2020/12/31 03:20:12;;;;;;;5.78;4.55;;;-0.40;99.90;;;;;;5051799;28;20028;-69
2020/12/31 03:22:38;;;;;;;8.27;4.90;;;-0.40;99.90;;;;;;5051396;28;20492;-70
2020/12/31 03:25:05;;;;;;;7.35;4.57;;;-0.40;99.90;;;;;;5051741;28;20132;-68
2020/12/31 03:27:30;;;;;;;6.30;4.43;;;-0.40;99.90;;;;;;5051530;28;20021;-69
2020/12/31 03:29:56;;;;;;;6.43;4.97;;;-0.50;99.90;;;;;;5052326;28;20021;-68
2020/12/31 03:32:22;;;;;;;6.82;4.75;;;-0.50;99.90;;;;;;5058324;28;20031;-68
2020/12/31 03:34:49;;;;;;;7.93;5.32;;;-0.60;99.90;;;;;;5059708;28;20017;-69
2020/12/31 03:37:14;;;;;;;6.20;4.80;;;-0.60;99.90;;;;;;5054530;28;20037;-69
2020/12/31 03:39:44;;;;;;;7.72;5.53;;;-0.60;99.90;;;;;;5054632;28;20032;-69
2020/12/31 03:42:09;;;;;;;8.57;5.40;;;-0.60;99.90;;;;;;5052047;28;20116;-69
2020/12/31 03:44:35;;;;;;;8.90;5.18;;;-0.60;99.90;;;;;;5044490;28;20072;-69
2020/12/31 03:47:02;;;;;;;6.60;4.80;;;-0.50;99.90;;;;;;5034458;28;20079;-70
2020/12/31 03:49:27;;;;;;;6.20;4.53;;;-0.50;99.90;;;;;;5034174;28;20025;-68
2020/12/31 03:51:53;;;;;;;6.10;4.80;;;-0.50;99.90;;;;;;5033536;28;20025;-68
2020/12/31 03:54:19;;;;;;;7.95;4.63;;;-0.60;99.90;;;;;;5031705;28;20017;-69
2020/12/31 03:56:44;;;;;;;6.18;4.88;;;-0.50;99.90;;;;;;5031445;28;20025;-68
2020/12/31 03:59:10;;;;;;;6.03;4.63;;;-0.70;99.90;;;;;;5032114;28;20078;-68
2020/12/31 04:01:36;;;;;;;8.73;5.38;;;-0.80;99.90;;;;;;5032650;28;20100;-68
2020/12/31 04:04:02;;;;;;;6.60;5.00;;;-0.90;99.90;;;;;;5033197;28;20040;-68
2020/12/31 04:06:29;;;;;;;8.45;5.40;;;-0.90;99.90;;;;;;5034234;28;20045;-68
2020/12/31 04:08:55;;;;;;;8.73;5.70;;;-0.80;99.90;;;;;;5035332;28;20092;-68
2020/12/31 04:11:21;;;;;;;13.65;7.10;;;-0.70;99.90;;;;;;5051361;28;20025;-67
2020/12/31 04:13:47;;;;;;;16.77;6.90;;;-0.60;99.90;;;;;;5051111;28;20044;-68
2020/12/31 04:16:13;;;;;;;11.13;6.43;;;-0.50;99.90;;;;;;5051068;28;20130;-68
2020/12/31 04:18:39;;;;;;;14.82;6.75;;;-0.50;99.90;;;;;;5051406;28;20074;-68
2020/12/31 04:21:04;;;;;;;10.55;5.85;;;-0.50;99.90;;;;;;5051132;28;20032;-68
2020/12/31 04:23:30;;;;;;;8.13;5.30;;;-0.50;99.90;;;;;;5051100;28;20109;-68
2020/12/31 04:25:56;;;;;;;9.15;5.82;;;-0.60;99.90;;;;;;5051051;28;20384;-68
2020/12/31 04:28:21;;;;;;;8.10;4.78;;;-0.70;99.90;;;;;;5051084;28;20025;-68
2020/12/31 04:30:48;;;;;;;6.13;4.60;;;-0.80;99.90;;;;;;5051149;28;20033;-68
2020/12/31 04:33:15;;;;;;;6.57;5.00;;;-0.80;99.90;;;;;;5050408;28;20502;-69
2020/12/31 04:35:41;;;;;;;6.05;4.53;;;-0.90;99.90;;;;;;5050964;28;20025;-68
2020/12/31 04:38:07;;;;;;;7.22;4.40;;;-1.00;99.90;;;;;;5050935;28;20028;-68
2020/12/31 04:40:33;;;;;;;7.30;4.78;;;-1.00;99.90;;;;;;5050825;28;20082;-68
2020/12/31 04:42:59;;;;;;;7.43;5.07;;;-1.00;99.90;;;;;;5050442;28;20112;-68
2020/12/31 04:45:26;;;;;;;7.30;4.70;;;-1.00;99.90;;;;;;5050965;28;20125;-68
2020/12/31 04:48:06;;;;;;;9.63;4.97;;;-1.10;99.90;;;;;;5050845;28;20032;-68
2020/12/31 04:50:33;;;;;;;8.93;5.28;;;-1.10;99.90;;;;;;5050900;28;20163;-68
2020/12/31 04:53:06;;;;;;;10.95;5.13;;;-1.20;99.90;;;;;;5050294;28;20029;-68
2020/12/31 04:55:45;;;;;;;8.40;5.60;;;-1.20;99.90;;;;;;5050621;28;20013;-68
2020/12/31 04:58:13;;;;;;;10.63;5.93;;;-1.20;99.90;;;;;;5050778;28;20071;-68
2020/12/31 05:00:40;;;;;;;8.95;5.38;;;-1.20;99.90;;;;;;5050537;28;20506;-68
2020/12/31 05:03:06;;;;;;;7.53;5.18;;;-1.30;99.90;;;;;;5050070;28;20028;-68
2020/12/31 05:05:35;;;;;;;8.48;5.28;;;-1.30;99.90;;;;;;5050730;28;20382;-68
2020/12/31 05:08:02;;;;;;;8.15;5.78;;;-1.30;99.90;;;;;;5050679;28;20032;-68
2020/12/31 05:10:28;;;;;;;9.57;5.97;;;-1.30;99.90;;;;;;5050387;28;20090;-68
2020/12/31 05:12:58;;;;;;;7.43;5.07;;;-1.30;99.90;;;;;;5047937;28;20057;-68
2020/12/31 05:15:40;;;;;;;5.82;4.80;;;-1.30;99.90;;;;;;5050179;28;20071;-68
2020/12/31 05:18:18;;;;;;;6.68;4.50;;;-1.40;99.90;;;;;;5050741;28;20398;-68
2020/12/31 05:20:46;;;;;;;8.02;5.30;;;-1.30;99.90;;;;;;5050574;28;20107;-68
2020/12/31 05:23:13;;;;;;;10.60;6.00;;;-1.30;99.90;;;;;;5052182;28;20017;-68
2020/12/31 05:25:39;;;;;;;10.90;5.68;;;-1.40;99.90;;;;;;5053892;28;20109;-68
2020/12/31 05:28:21;;;;;;;7.35;5.20;;;-1.30;99.90;;;;;;5054101;28;20120;-68
2020/12/31 05:30:49;;;;;;;9.85;5.13;;;-1.40;99.90;;;;;;5054319;28;20028;-68
2020/12/31 05:33:28;;;;;;;9.40;5.38;;;-1.40;99.90;;;;;;5053615;28;20051;-67
2020/12/31 05:36:16;;;;;;;7.00;4.90;;;-1.40;99.90;;;;;;5054243;28;20017;-68
2020/12/31 05:39:00;;;;;;;6.78;4.32;;;-1.40;99.90;;;;;;5054261;28;20028;-68
2020/12/31 05:41:27;;;;;;;7.40;5.20;;;-1.40;99.90;;;;;;5053788;28;20029;-68
2020/12/31 05:44:04;;;;;;;9.63;5.30;;;-1.40;99.90;;;;;;5053776;28;20055;-68
2020/12/31 05:46:30;;;;;;;7.65;4.93;;;-1.40;99.90;;;;;;5052442;28;20053;-68
2020/12/31 05:49:08;;;;;;;8.50;5.07;;;-1.40;99.90;;;;;;5053981;28;20483;-68
2020/12/31 05:51:38;;;;;;;9.90;5.55;;;-1.40;99.90;;;;;;5052999;28;20029;-68
2020/12/31 05:54:08;;;;;;;10.45;5.78;;;-1.40;99.90;;;;;;5054172;28;20077;-68
2020/12/31 05:56:36;;;;;;;9.18;6.00;;;-1.40;99.90;;;;;;5055229;28;20025;-67
2020/12/31 05:59:12;;;;;;;9.10;5.72;;;-1.40;99.90;;;;;;5055036;28;20021;-68
2020/12/31 06:01:38;;;;;;;11.77;5.80;;;-1.50;99.90;;;;;;5055017;28;20104;-67
2020/12/31 06:04:18;;;;;;;10.00;6.10;;;-1.40;99.90;;;;;;5056878;28;20024;-67
2020/12/31 06:06:50;;;;;;;7.72;5.43;;;-1.50;99.90;;;;;;5077440;28;20017;-68
2020/12/31 06:09:41;;;;;;;8.85;5.68;;;-1.50;99.90;;;;;;5077984;28;20041;-68
2020/12/31 06:12:08;;;;;;;10.07;6.05;;;-1.40;99.90;;;;;;5078392;28;20036;-67
2020/12/31 06:14:37;;;;;;;10.10;5.45;;;-1.50;99.90;;;;;;5077584;28;20081;-67
2020/12/31 06:17:04;;;;;;;11.80;6.10;;;-1.60;99.90;;;;;;5078334;28;20009;-68
2020/12/31 06:19:32;;;;;;;11.80;5.60;;;-1.50;99.90;;;;;;5071107;28;20044;-68
2020/12/31 06:22:09;;;;;;;13.18;6.03;;;-1.60;99.90;;;;;;5053781;28;20025;-68
2020/12/31 06:24:45;;;;;;;12.07;5.97;;;-1.60;99.90;;;;;;5052766;28;20075;-68
2020/12/31 06:27:15;;;;;;;12.30;6.78;;;-1.60;99.90;;;;;;5052959;28;20033;-67
2020/12/31 06:29:48;;;;;;;10.98;6.32;;;-1.50;99.90;;;;;;5053071;28;20372;-68
2020/12/31 06:32:27;;;;;;;14.70;7.55;;;-1.50;99.90;;;;;;5053101;28;20033;-67
2020/12/31 06:35:10;;;;;;;11.07;6.93;;;-1.50;99.90;;;;;;5052229;28;20028;-68
2020/12/31 06:37:36;;;;;;;17.63;8.27;;;-1.40;99.90;;;;;;5052757;28;20033;-68
2020/12/31 06:40:22;;;;;;;13.98;8.15;;;-1.30;99.90;;;;;;5052855;28;20029;-68
2020/12/31 06:43:04;;;;;;;12.40;7.55;;;-1.30;99.90;;;;;;5051921;28;20051;-68
2020/12/31 06:45:33;;;;;;;;;;;-1.20;99.90;;;;;;5053076;28;20033;-67
2020/12/31 06:47:59;;;;;;;13.30;7.53;;;-1.20;99.90;;;;;;5052661;28;20351;-67
2020/12/31 06:50:56;;;;;;;14.95;8.00;;;-1.10;99.90;;;;;;5052653;28;20059;-68
2020/12/31 06:53:35;;;;;;;16.58;8.80;;;-1.00;99.90;;;;;;5051976;28;20017;-68
2020/12/31 06:56:04;;;;;;;18.35;8.65;;;-1.00;99.90;;;;;;5052321;28;20032;-67
2020/12/31 06:58:30;;;;;;;17.80;9.27;;;-0.90;99.90;;;;;;5052349;28;20020;-67
2020/12/31 07:00:56;;;;;;;22.55;8.55;;;-0.90;99.90;;;;;;5052208;28;20027;-67
2020/12/31 07:03:40;;;;;;;16.23;9.23;;;-0.90;99.90;;;;;;5051622;28;20104;-67
2020/12/31 07:06:21;;;;;;;17.88;9.13;;;-0.80;99.90;;;;;;5050640;28;20057;-68
2020/12/31 07:08:47;;;;;;;19.02;10.48;;;-0.80;99.90;;;;;;5052185;28;20052;-68
2020/12/31 07:11:13;;;;;;;16.02;9.68;;;-0.70;99.90;;;;;;5052106;28;20055;-68
2020/12/31 07:13:40;;;;;;;18.55;9.80;;;-0.60;99.90;;;;;;5051484;28;20051;-68
2020/12/31 07:16:06;;;;;;;16.98;9.77;;;-0.50;99.90;;;;;;5051767;28;20025;-67
2020/12/31 07:18:34;;;;;;;18.60;9.02;;;-0.50;99.90;;;;;;5052201;28;20021;-68
2020/12/31 07:21:00;;;;;;;22.88;10.30;;;-0.40;99.90;;;;;;5061982;28;20029;-68
2020/12/31 07:23:41;;;;;;;18.17;9.57;;;-0.40;99.90;;;;;;5067238;28;20029;-68
2020/12/31 07:26:07;;;;;;;18.58;9.65;;;-0.30;99.90;;;;;;5067675;28;20028;-68
2020/12/31 07:28:34;;;;;;;17.60;9.60;;;-0.30;99.90;;;;;;5065263;28;20112;-68
2020/12/31 07:31:00;;;;;;;17.40;9.80;;;-0.20;99.90;;;;;;5051987;28;20028;-68
2020/12/31 07:33:37;;;;;;;17.08;9.60;;;-0.20;99.90;;;;;;5049945;28;20025;-68
2020/12/31 07:36:13;;;;;;;14.38;8.80;;;-0.10;99.90;;;;;;5051834;28;20114;-68
2020/12/31 07:38:39;;;;;;;16.98;10.05;;;-0.10;99.90;;;;;;5052277;28;20063;-68
2020/12/31 07:41:11;;;;;;;14.20;9.20;;;-0.10;99.90;;;;;;5040446;28;20017;-69
2020/12/31 07:43:38;;;;;;;19.20;10.07;;;0.00;99.90;;;;;;5044112;28;20116;-69
2020/12/31 07:46:04;;;;;;;14.63;9.63;;;0.20;99.90;;;;;;5042779;28;20272;-68
2020/12/31 07:48:31;;;;;;;15.98;9.82;;;0.30;99.90;;;;;;5031386;28;20490;-69
2020/12/31 07:50:58;;;;;;;15.48;9.68;;;0.40;99.90;;;;;;5031668;28;20044;-70
2020/12/31 07:53:31;;;;;;;16.70;10.15;;;0.50;99.90;;;;;;5035760;28;20108;-69
2020/12/31 07:55:57;;;;;;;;;;;0.60;99.90;;;;;;5034424;28;20021;-69
2020/12/31 07:58:24;;;;;;;15.45;9.82;;;0.70;99.90;;;;;;5032091;28;19952;-68
2020/12/31 08:01:07;;;;;;;18.40;11.02;;;0.70;99.90;;;;;;5031490;28;20064;-69
2020/12/31 08:03:32;;;;;;;;;;;0.80;99.90;;;;;;5051416;28;20036;-69
2020/12/31 08:06:07;;;;;;;16.42;10.50;;;0.90;99.90;;;;;;5050932;28;19905;-69
2020/12/31 08:08:34;;;;;;;18.30;10.65;;;0.90;99.90;;;;;;5040019;28;20047;-69
2020/12/31 08:11:07;;;;;;;18.77;9.95;;;1.00;99.90;;;;;;5039377;28;20013;-69
2020/12/31 08:13:32;;;;;;;16.92;9.88;;;1.10;99.90;;;;;;5038483;28;20064;-69
2020/12/31 08:15:58;;;;;;;17.00;10.68;;;1.20;99.90;;;;;;5040387;28;20017;-69
2020/12/31 08:18:25;;;;;;;15.77;10.73;;;1.30;99.90;;;;;;5040769;28;20113;-69
2020/12/31 08:20:53;;;;;;;17.40;11.35;;;1.40;99.90;;;;;;5038860;28;20506;-69
2020/12/31 08:23:26;;;;;;;16.85;10.98;;;1.40;99.90;;;;;;5038987;28;20112;-68
2020/12/31 08:25:56;;;;;;;15.32;9.82;;;1.50;99.90;;;;;;5038030;28;20029;-70
2020/12/31 08:28:22;;;;;;;15.27;11.68;;;1.50;99.90;;;;;;5031281;28;20025;-68
2020/12/31 08:30:48;;;;;;;17.30;12.05;;;1.60;99.90;;;;;;5032779;28;20076;-75
2020/12/31 08:33:25;;;;;;;19.88;11.50;;;1.60;99.90;;;;;;5041402;28;21554;-74
2020/12/31 08:35:51;;;;;;;13.02;9.70;;;1.70;99.90;;;;;;5037445;28;20044;-73
2020/12/31 08:38:21;;;;;;;12.25;8.90;;;1.80;99.90;;;;;;5031810;28;20037;-74
2020/12/31 08:40:47;;;;;;;9.77;8.20;;;1.80;99.90;;;;;;5031214;28;20487;-74
2020/12/31 08:43:29;;;;;;;12.88;7.80;;;1.70;99.90;;;;;;5044776;28;20040;-74
2020/12/31 08:45:57;;;;;;;;;;;1.70;99.90;;;;;;5051254;28;20017;-66
2020/12/31 08:48:25;;;;;;;9.02;6.65;;;1.70;99.90;;;;;;5050545;28;19913;-66
2020/12/31 08:51:11;;;;;;;10.23;6.55;;;1.70;99.90;;;;;;5050757;28;20450;-66
2020/12/31 08:53:53;;;;;;;9.02;6.90;;;1.70;99.90;;;;;;5049867;28;20048;-68
2020/12/31 08:56:20;;;;;;;10.05;6.15;;;1.60;99.90;;;;;;5043325;28;20033;-68
2020/12/31 08:58:46;;;;;;;7.47;6.20;;;1.70;99.90;;;;;;5054746;28;20024;-67
2020/12/31 09:01:32;;;;;;;8.57;6.57;;;1.70;99.90;;;;;;5037270;28;20112;-66
2020/12/31 09:04:24;;;;;;;10.00;6.85;;;1.70;99.90;;;;;;5033228;28;20088;-66
2020/12/31 09:06:57;;;;;;;8.18;6.28;;;1.80;99.90;;;;;;5032288;28;20480;-67
2020/12/31 09:09:28;;;;;;;10.13;7.05;;;1.90;99.90;;;;;;5034514;28;20026;-66
2020/12/31 09:11:58;;;;;;;8.75;6.45;;;2.00;99.90;;;;;;5037979;28;20071;-66
2020/12/31 09:14:25;;;;;;;9.23;5.35;;;2.10;99.90;;;;;;5053409;28;20032;-66
2020/12/31 09:16:51;;;;;;;7.32;5.53;;;2.30;99.90;;;;;;5053735;28;20025;-66
2020/12/31 09:19:17;;;;;;;8.27;5.68;;;2.50;99.90;;;;;;5052887;28;20032;-67
2020/12/31 09:21:43;;;;;;;6.55;5.38;;;2.70;99.90;;;;;;5054281;28;20025;-68
2020/12/31 09:24:19;;;;;;;16.95;7.95;;;2.90;99.90;;;;;;5052562;28;20029;-66
2020/12/31 09:26:51;;;;;;;15.75;8.07;;;2.90;99.90;;;;;;5052561;28;20031;-67
2020/12/31 09:29:17;;;;;;;14.57;7.65;;;2.90;99.90;;;;;;5052696;28;20025;-68
2020/12/31 09:31:43;;;;;;;8.88;7.07;;;2.80;99.90;;;;;;5053966;28;20032;-66
2020/12/31 09:34:08;;;;;;;10.20;6.57;;;2.90;99.90;;;;;;5053236;28;20043;-68
2020/12/31 09:36:34;;;;;;;10.18;6.95;;;2.90;99.90;;;;;;5053738;28;20025;-66
2020/12/31 09:39:00;;;;;;;11.32;6.85;;;3.10;99.90;;;;;;5053918;28;20013;-67
2020/12/31 09:41:25;;;;;;;12.93;8.18;;;3.10;99.90;;;;;;5053279;28;20025;-65
2020/12/31 09:43:51;;;;;;;12.45;8.38;;;3.20;99.90;;;;;;5052572;28;20482;-64
2020/12/31 09:46:19;;;;;;;13.07;8.15;;;3.20;99.90;;;;;;5041653;28;20033;-68
2020/12/31 09:48:45;;;;;;;11.27;6.68;;;3.30;99.90;;;;;;5046633;28;20017;-68
2020/12/31 09:51:11;;;;;;;9.82;6.72;;;3.30;99.90;;;;;;5052015;28;20429;-68
2020/12/31 09:53:37;;;;;;;10.20;7.35;;;3.40;99.90;;;;;;5073037;28;20028;-68
2020/12/31 09:56:02;;;;;;;12.30;7.97;;;3.50;99.90;;;;;;5066780;28;20541;-68
2020/12/31 09:58:28;;;;;;;12.27;7.03;;;3.50;99.90;;;;;;5048952;28;20032;-68
2020/12/31 10:00:54;;;;;;;10.55;6.82;;;3.60;99.90;;;;;;5042076;28;20029;-68
2020/12/31 10:03:19;;;;;;;10.30;7.05;;;3.80;99.90;;;;;;5041700;28;20029;-68
2020/12/31 10:05:45;;;;;;;12.75;8.38;;;3.80;99.90;;;;;;5033972;28;20442;-67
2020/12/31 10:08:11;;;;;;;11.98;7.30;;;3.90;99.90;;;;;;5032835;28;20397;-68
2020/12/31 10:10:37;;;;;;;10.63;6.82;;;3.80;99.90;;;;;;5033772;28;20075;-68
2020/12/31 10:13:03;;;;;;;7.60;6.00;;;3.40;99.90;;;;;;5033379;28;20044;-68
2020/12/31 10:15:29;;;;;;;7.80;5.63;;;3.40;99.90;;;;;;5044567;28;20033;-69
2020/12/31 10:17:54;;;;;;;9.23;7.07;;;3.40;99.90;;;;;;5048569;28;20029;-67
2020/12/31 10:20:20;;;;;;;10.45;6.60;;;3.50;99.90;;;;;;5046594;28;20021;-68
2020/12/31 10:22:46;;;;;;;11.85;6.78;;;3.70;99.90;;;;;;5047052;28;20464;-67
2020/12/31 10:25:11;;;;;;;12.65;7.93;;;3.70;99.90;;;;;;5047803;28;20112;-68
2020/12/31 10:27:37;;;;;;;16.33;10.68;;;3.80;99.90;;;;;;5047685;28;20041;-67
2020/12/31 10:30:05;;;;;;;11.93;8.77;;;3.40;99.90;;;;;;5045049;28;20025;-67
2020/12/31 10:32:30;;;;;;;10.73;8.07;;;3.30;99.90;;;;;;5061710;28;20379;-68
2020/12/31 10:34:56;;;;;;;10.20;7.00;;;3.10;99.90;;;;;;5065691;28;20047;-68
2020/12/31 10:37:22;;;;;;;8.43;6.45;;;3.20;99.90;;;;;;5066759;28;20040;-68
2020/12/31 10:39:47;;;;;;;10.15;7.45;;;3.20;99.90;;;;;;5066192;28;20084;-68
2020/12/31 10:42:13;;;;;;;10.25;6.80;;;3.40;99.90;;;;;;5067525;28;20029;-67
2020/12/31 10:44:39;;;;;;;9.60;6.82;;;3.50;99.90;;;;;;5067792;28;20063;-69
2020/12/31 10:47:05;;;;;;;10.65;6.70;;;3.70;99.90;;;;;;5059906;28;20029;-66
2020/12/31 10:49:31;;;;;;;11.20;7.50;;;3.80;99.90;;;;;;5064030;28;20021;-76
2020/12/31 10:51:56;;;;;;;16.85;9.80;;;3.90;99.90;;;;;;5067341;28;20056;-80
2020/12/31 10:54:22;;;;;;;14.77;8.80;;;4.00;99.90;;;;;;5070984;28;20064;-77
2020/12/31 10:56:50;;;;;;;9.00;6.97;;;4.10;99.90;;;;;;5072992;28;20018;-77
2020/12/31 10:59:16;;;;;;;9.65;6.90;;;4.30;99.90;;;;;;5073376;28;20081;-75
2020/12/31 11:01:42;;;;;;;10.27;7.28;;;4.80;99.90;;;;;;5072065;28;20032;-71
2020/12/31 11:04:08;;;;;;;10.13;6.85;;;5.40;99.90;;;;;;5055055;28;20035;-61
2020/12/31 11:06:33;;;;;;;9.98;7.00;;;5.70;99.90;;;;;;5053808;28;20029;-64
2020/12/31 11:08:59;;;;;;;10.50;7.15;;;5.60;99.90;;;;;;5053224;28;20505;-63
2020/12/31 11:11:27;;;;;;;10.63;6.07;;;5.50;99.90;;;;;;5052417;28;20024;-62
2020/12/31 11:13:53;;;;;;;9.13;6.18;;;5.30;99.90;;;;;;5052007;28;20590;-75
2020/12/31 11:16:20;;;;;;;7.60;5.57;;;5.10;99.90;;;;;;5053846;28;20025;-74
2020/12/31 11:18:46;;;;;;;7.68;5.82;;;5.00;99.90;;;;;;5055290;28;20098;-75
2020/12/31 11:21:17;;;;;;;6.68;5.20;;;4.90;99.90;;;;;;5055406;28;20463;-71
2020/12/31 11:23:43;;;;;;;7.87;5.73;;;5.20;99.90;;;;;;5058659;28;20021;-72
2020/12/31 11:26:14;;;;;;;5.70;5.10;;;5.20;99.90;;;;;;5053608;28;20271;-74
2020/12/31 11:28:39;;;;;;;8.70;5.72;;;5.10;99.90;;;;;;5042705;28;20029;-73
2020/12/31 11:31:06;;;;;;;7.35;5.85;;;5.20;99.90;;;;;;5055203;28;20033;-73
2020/12/31 11:33:32;;;;;;;6.93;5.68;;;5.20;99.90;;;;;;5048751;28;20045;-73
2020/12/31 11:35:58;;;;;;;7.95;5.30;;;5.20;99.90;;;;;;5043347;28;20096;-75
2020/12/31 11:38:24;;;;;;;8.38;4.93;;;5.10;99.90;;;;;;5044575;28;20036;-75
2020/12/31 11:40:50;;;;;;;8.88;5.95;;;4.90;99.90;;;;;;5048927;28;20056;-75
2020/12/31 11:43:15;;;;;;;7.47;5.80;;;5.00;99.90;;;;;;5057863;28;20036;-76
2020/12/31 11:45:41;;;;;;;7.32;5.75;;;4.90;99.90;;;;;;5053715;28;20029;-77
2020/12/31 11:48:07;;;;;;;8.25;5.72;;;4.90;99.90;;;;;;5041472;28;20045;-77
2020/12/31 11:50:33;;;;;;;5.10;4.60;;;4.70;99.90;;;;;;5041203;28;20041;-77
2020/12/31 11:52:59;;;;;;;6.07;5.20;;;4.70;99.90;;;;;;5041850;28;20365;-67
2020/12/31 11:55:24;;;;;;;5.95;4.57;;;4.40;99.90;;;;;;5041507;28;20110;-68
2020/12/31 11:57:50;;;;;;;6.03;4.97;;;4.40;99.90;;;;;;5031751;28;20026;-67
2020/12/31 12:00:16;;;;;;;6.97;5.35;;;4.40;99.90;;;;;;5032184;28;20055;-67
2020/12/31 12:02:42;;;;;;;9.32;5.60;;;4.50;99.90;;;;;;5046503;28;20394;-67
2020/12/31 12:05:08;;;;;;;6.82;5.70;;;4.50;99.90;;;;;;5051659;28;20043;-67
2020/12/31 12:07:34;;;;;;;6.00;4.53;;;4.50;99.90;;;;;;5051302;28;20701;-67
2020/12/31 12:09:59;;;;;;;5.32;4.15;;;4.10;99.90;;;;;;5051533;28;20475;-66
2020/12/31 12:12:25;;;;;;;5.68;3.97;;;4.20;99.90;;;;;;5051066;28;20107;-68
2020/12/31 12:14:51;;;;;;;6.30;4.75;;;4.30;99.90;;;;;;5051209;28;20052;-75
2020/12/31 12:17:16;;;;;;;5.28;4.38;;;4.30;99.90;;;;;;5052718;28;20068;-75
2020/12/31 12:19:42;;;;;;;7.30;5.82;;;4.40;99.90;;;;;;5052735;28;20109;-74
2020/12/31 12:22:07;;;;;;;7.78;4.60;;;4.60;99.90;;;;;;5052521;28;20498;-74
2020/12/31 12:24:33;;;;;;;5.53;4.60;;;4.50;99.90;;;;;;5051945;28;20112;-73
2020/12/31 12:26:59;;;;;;;7.82;6.05;;;4.50;99.90;;;;;;5051740;28;20067;-74
2020/12/31 12:29:25;;;;;;;5.05;4.55;;;4.50;99.90;;;;;;5049968;28;20069;-74
2020/12/31 12:31:51;;;;;;;5.30;4.60;;;4.50;99.90;;;;;;5051645;28;20036;-71
2020/12/31 12:34:17;;;;;;;5.70;4.82;;;4.50;99.90;;;;;;5053659;28;20028;-71
2020/12/31 12:36:47;;;;;;;8.35;5.10;;;4.50;99.90;;;;;;5054162;28;20017;-75
2020/12/31 12:39:12;;;;;;;5.57;4.80;;;4.70;99.90;;;;;;5053763;28;20044;-77
2020/12/31 12:41:38;;;;;;;5.80;4.57;;;4.60;99.90;;;;;;5050793;28;20467;-77
2020/12/31 12:44:04;;;;;;;5.15;4.00;;;4.70;99.90;;;;;;5036328;28;20017;-76
2020/12/31 12:46:30;;;;;;;5.28;3.97;;;4.90;99.90;;;;;;5042947;28;20021;-75
2020/12/31 12:48:55;;;;;;;5.60;3.65;;;4.80;99.90;;;;;;5046014;28;20028;-77
2020/12/31 12:51:21;;;;;;;6.13;4.55;;;4.70;99.90;;;;;;5054729;28;20024;-77
2020/12/31 12:53:46;;;;;;;3.88;3.47;;;4.70;99.90;;;;;;5034213;28;20056;-76
2020/12/31 12:56:13;;;;;;;6.57;3.85;;;4.70;99.90;;;;;;5054290;28;20021;-77